createdAt,value
2018-07-02T06:21:11.424Z,2.60
2018-07-02T06:27:15.972Z,3.10
2018-07-02T06:29:44.602Z,2.40
2018-07-02T06:32:16.229Z,2.70
2018-07-02T06:34:46.074Z,2.42
2018-07-02T16:47:59.186Z,4.70
2018-07-02T16:50:35.221Z,4.50
2018-07-02T16:53:12.163Z,4.75
2018-07-02T16:55:41.617Z,4.77
2018-07-02T16:59:43.067Z,4.33
2018-07-02T17:02:12.316Z,4.92
2018-07-02T17:04:41.463Z,5.12
2018-07-02T17:07:11.769Z,4.78
2018-07-02T17:09:40.862Z,4.85
2018-07-02T17:12:11.747Z,4.47
2018-07-02T17:14:45.314Z,4.92
2018-07-02T17:17:15.119Z,4.80
2018-07-02T17:19:45.682Z,4.33
2018-07-02T17:22:18.192Z,4.35
2018-07-02T17:24:51.611Z,5.30
2018-07-02T17:27:24.063Z,4.80
2018-07-02T17:29:57.105Z,4.78
2018-07-02T17:32:36.152Z,4.40
2018-07-02T17:35:14.519Z,4.87
2018-07-02T17:58:56.833Z,4.90
2018-07-02T18:01:32.095Z,5.28
2018-07-02T18:04:07.328Z,5.75
2018-07-02T18:24:47.222Z,5.28
2018-07-02T18:27:25.059Z,5.55
2018-07-02T18:30:04.185Z,5.28
2018-07-02T18:32:45.945Z,4.78
2018-07-02T18:38:37.660Z,5.08
2018-07-02T18:41:13.009Z,4.70
2018-07-02T18:43:58.620Z,4.28
2018-07-02T18:46:29.904Z,4.97
2018-07-02T18:49:08.275Z,5.03
2018-07-02T18:52:00.685Z,5.08
2018-07-02T18:54:30.085Z,5.30
2018-07-02T20:02:03.507Z,4.97
2018-07-02T20:04:51.172Z,4.78
2018-07-02T21:08:28.845Z,4.67
2018-07-02T21:11:04.088Z,4.75
2018-07-02T21:13:48.999Z,4.58
2018-07-02T21:16:30.967Z,4.47
2018-07-02T21:19:49.727Z,4.92
2018-07-02T21:22:43.633Z,5.10
2018-07-02T21:29:03.299Z,4.60
2018-07-02T21:31:39.038Z,4.55
2018-07-02T21:34:24.625Z,7.67
2018-07-02T21:37:12.427Z,4.53
2018-07-02T22:47:07.705Z,3.80
2018-07-02T22:55:35.486Z,3.90
2018-07-02T22:58:29.299Z,3.67
2018-07-02T23:01:21.290Z,3.77
2018-07-02T23:04:05.963Z,4.28
2018-07-02T23:06:51.453Z,4.10
2018-07-02T23:09:42.701Z,4.10
2018-07-02T23:23:53.694Z,3.47
2018-07-02T23:41:06.118Z,3.87
2018-07-02T23:43:40.613Z,3.50
